EST,Max TemperatureF,Mean TemperatureF,Min TemperatureF,Max Dew PointF,MeanDew PointF,Min DewpointF,Max Humidity, Mean Humidity, Min Humidity, Max Sea Level PressureIn, Mean Sea Level PressureIn, Min Sea Level PressureIn, Max VisibilityMiles, Mean VisibilityMiles, Min VisibilityMiles, Max Wind SpeedMPH, Mean Wind SpeedMPH, Max Gust SpeedMPH,PrecipitationIn, CloudCover, Events, WindDirDegrees
2013-1-1,41,36,28,28,21,7,70,52,35,30.01,29.92,29.85,10,10,10,17,11,26,0.00,4,,291
2013-1-2,33,28,24,16,9,1,64,45,29,30.18,30.07,29.99,10,10,10,21,11,28,0.00,0,,306
2013-1-3,33,28,23,19,15,12,74,58,41,30.20,30.14,30.09,10,10,10,12,6,16,0.00,0,,279
2013-1-4,37,32,28,21,15,5,69,49,30,30.12,30.05,29.98,10,10,10,21,10,32,0.00,3,,258
2013-1-5,42,36,30,12,7,1,47,32,23,30.31,30.21,30.04,10,10,10,18,9,21,0.00,0,,267
2013-1-6,46,39,32,25,18,10,65,46,32,30.25,30.08,29.99,10,8,1,13,6,,0.02,4,,252
2013-1-7,46,38,30,23,13,7,56,37,20,30.41,30.29,30.08,10,10,10,17,7,24,0.00,0,,290
2013-1-8,50,39,28,32,18,9,81,47,28,30.44,30.39,30.35,10,10,8,14,6,21,0.00,0,,235
2013-1-9,51,40,30,39,33,21,93,67,34,30.39,30.29,30.16,10,10,7,17,4,29,0.00,4,,238
2013-1-10,50,44,37,21,17,12,49,35,24,30.54,30.45,30.27,10,10,10,21,12,26,0.00,0,,306
2013-1-11,46,40,35,39,29,16,76,59,41,30.53,30.33,30.07,10,9,1,10,5,17,0.51,5,,87
2013-1-12,48,46,44,39,38,36,76,74,66,30.18,30.12,30.06,8,2,0,10,5,,0.00,8,,337
2013-1-13,51,46,41,45,38,34,82,73,62,30.16,30.10,30.01,10,3,0,10,3,,0.00,8,,184
2013-1-14,57,49,39,50,37,18,82,61,28,30.28,30.11,29.96,10,6,0,14,6,21,0.04,8,,307
2013-1-15,39,37,35,28,21,16,70,51,39,30.34,30.27,30.20,10,10,7,12,7,,0.21,8,,5
2013-1-16,41,38,35,30,27,23,70,67,60,30.19,29.98,29.79,10,5,0,17,7,28,0.65,8,,332
2013-1-17,42,40,37,27,21,16,65,49,34,30.10,30.03,29.94,10,10,6,13,7,20,0.00,4,,291
2013-1-18,37,30,24,18,-1,-11,48,28,16,30.50,30.33,30.01,10,10,9,21,9,32,0.00,3,,316
2013-1-19,51,38,26,18,9,-4,38,29,21,30.42,30.21,29.95,10,10,10,18,11,31,0.00,0,,216
2013-1-20,55,44,32,19,13,0,44,29,14,30.04,29.85,29.73,10,10,10,28,14,38,0.00,0,,261
2013-1-21,32,29,26,27,15,9,93,57,38,30.10,29.99,29.84,10,10,2,20,7,20,0.00,5,,298
2013-1-22,26,20,14,14,1,-6,59,45,35,30.22,30.04,29.84,10,10,10,23,16,32,0.00,1,,293
2013-1-23,19,14,10,5,-1,-6,79,53,36,30.26,30.21,30.17,10,10,10,20,10,25,0.00,2,,282
2013-1-24,24,16,8,7,0,-11,92,52,25,30.41,30.25,30.11,10,10,10,23,8,29,0.00,2,,311
2013-1-25,24,17,10,18,5,-2,100,60,36,30.43,30.28,30.06,10,9,1,14,9,18,0.00,2,,273
2013-1-26,26,18,10,12,7,-2,100,63,29,30.38,30.17,30.04,10,10,10,20,8,28,0.00,1,,304
2013-1-27,33,24,14,12,10,3,73,55,38,30.53,30.47,30.38,10,10,10,15,8,24,0.00,0,,286
2013-1-28,35,28,21,34,25,12,100,82,59,30.50,30.26,30.02,10,6,1,10,6,18,0.05,7,,231
2013-1-29,53,44,35,45,37,30,100,82,57,30.15,30.09,30.01,10,4,2,9,6,,0.00,8,,205
2013-1-30,62,53,44,55,48,39,100,80,59,30.07,29.75,29.40,10,6,0,30,9,46,0.01,6,,178
2013-1-31,60,45,28,52,18,-6,77,38,17,29.83,29.47,29.13,10,10,4,32,23,52,0.51,5,,256